Time;durP1;ratioP1;P1;durP2;ratioP2;P2;SDS_P1;SDS_P2;PMS_P1;PMS_P2;Temp;Humidity;BMP_temperature;BMP_pressure;BME280_temperature;BME280_humidity;BME280_pressure;Samples;Min_cycle;Max_cycle;Signal;HPM_P1;HPM_P2
2022/05/02 00:02:19;;;;;;;11.00;6.60;;;;;;;10.94;53.27;100562.06;5096384;28;20081;-68
2022/05/02 00:04:44;;;;;;;11.65;7.43;;;;;;;10.93;53.57;100560.50;5096079;28;20449;-68
2022/05/02 00:07:09;;;;;;;11.82;7.43;;;;;;;10.87;53.39;100550.97;5077556;28;20027;-70
2022/05/02 00:09:35;;;;;;;13.07;7.50;;;;;;;10.86;53.51;100560.78;5077451;28;20028;-68
2022/05/02 00:12:00;;;;;;;13.80;7.22;;;;;;;10.79;53.38;100547.66;5095374;28;20044;-68
2022/05/02 00:14:25;;;;;;;14.05;7.70;;;;;;;10.76;54.37;100548.59;5095335;28;20464;-67
2022/05/02 00:16:51;;;;;;;15.65;7.53;;;;;;;10.70;54.82;100556.22;5077414;28;20485;-67
2022/05/02 00:19:16;;;;;;;14.77;8.10;;;;;;;10.66;54.56;100554.78;5094818;28;20024;-67
2022/05/02 00:21:42;;;;;;;15.48;7.43;;;;;;;10.49;55.24;100522.16;5095540;28;20028;-68
2022/05/02 00:24:08;;;;;;;14.23;8.50;;;;;;;10.58;55.52;100550.66;5077152;28;20028;-68
2022/05/02 00:26:34;;;;;;;13.45;8.30;;;;;;;10.52;55.42;100549.69;5060610;28;20361;-69
2022/05/02 00:28:59;;;;;;;10.25;7.60;;;;;;;10.45;56.91;100539.41;5095143;28;20461;-69
2022/05/02 00:31:25;;;;;;;14.93;8.63;;;;;;;10.47;56.51;100547.47;5077148;28;20020;-69
2022/05/02 00:33:50;;;;;;;13.48;7.88;;;;;;;10.38;56.59;100542.56;5095146;28;20032;-69
2022/05/02 00:36:15;;;;;;;13.93;7.65;;;;;;;10.34;56.99;100542.72;5077008;28;20012;-68
2022/05/02 00:38:41;;;;;;;12.93;8.05;;;;;;;10.34;56.51;100539.09;5076680;28;20046;-69
2022/05/02 00:41:06;;;;;;;11.75;7.80;;;;;;;10.32;56.77;100545.25;5077228;28;20103;-68
2022/05/02 00:43:32;;;;;;;12.93;7.95;;;;;;;10.28;57.66;100546.66;5094995;28;20052;-68
2022/05/02 00:45:57;;;;;;;22.38;9.25;;;;;;;10.08;56.93;100517.78;5095093;28;20098;-69
2022/05/02 00:48:22;;;;;;;13.88;8.25;;;;;;;10.19;58.21;100543.78;5060017;28;20038;-69
2022/05/02 00:50:48;;;;;;;14.45;8.15;;;;;;;10.13;58.19;100543.59;5094910;28;20024;-69
2022/05/02 00:53:17;;;;;;;15.20;7.90;;;;;;;10.06;57.96;100537.41;5059885;28;20020;-68
2022/05/02 00:55:44;;;;;;;13.93;8.13;;;;;;;10.04;58.69;100542.75;5094799;28;20035;-69
2022/05/02 00:58:09;;;;;;;15.07;8.85;;;;;;;10.01;58.19;100546.56;5094799;28;20024;-68
2022/05/02 01:00:37;;;;;;;14.77;8.05;;;;;;;9.95;58.69;100549.22;5076607;28;20381;-68
2022/05/02 01:03:03;;;;;;;15.43;8.05;;;;;;;9.92;58.80;100541.59;5076532;28;20115;-69
2022/05/02 01:05:29;;;;;;;14.75;9.73;;;;;;;9.85;58.86;100547.59;5076367;28;20369;-71
2022/05/02 01:07:55;;;;;;;12.63;8.43;;;;;;;9.66;58.96;100517.50;5076668;28;20028;-68
2022/05/02 01:10:20;;;;;;;15.32;9.60;;;;;;;9.81;59.43;100539.22;5094244;28;20464;-68
2022/05/02 01:12:47;;;;;;;14.07;8.10;;;;;;;9.75;59.06;100534.59;5061756;28;20046;-68
2022/05/02 01:15:14;;;;;;;17.02;8.90;;;;;;;9.76;59.74;100539.03;5056355;28;20024;-69
2022/05/02 01:17:40;;;;;;;14.98;8.30;;;;;;;9.69;59.12;100527.94;5056504;28;20073;-68
2022/05/02 01:20:07;;;;;;;15.10;8.02;;;;;;;9.72;59.44;100536.31;5055998;28;20020;-70
2022/05/02 01:22:32;;;;;;;16.00;9.20;;;;;;;9.69;59.58;100537.25;5073729;28;20466;-69
2022/05/02 01:24:57;;;;;;;17.15;9.25;;;;;;;9.64;60.29;100529.34;5073829;28;20024;-67
2022/05/02 01:27:23;;;;;;;15.00;8.20;;;;;;;9.66;59.60;100532.53;5055955;28;20032;-68
2022/05/02 01:29:48;;;;;;;15.55;8.77;;;;;;;9.62;60.32;100529.00;5039235;28;20473;-68
2022/05/02 01:32:15;;;;;;;15.13;9.25;;;;;;;9.62;60.55;100539.63;5038406;28;20111;-67
2022/05/02 01:34:41;;;;;;;14.73;8.57;;;;;;;9.58;60.51;100534.03;5073570;28;20097;-69
2022/05/02 01:37:07;;;;;;;18.23;9.45;;;;;;;9.57;60.85;100529.63;5073468;28;20021;-67
2022/05/02 01:39:33;;;;;;;17.45;9.30;;;;;;;9.52;60.50;100530.25;5073672;28;20432;-69
2022/05/02 01:42:00;;;;;;;12.55;9.05;;;;;;;9.51;60.36;100529.44;5022584;28;20454;-68
2022/05/02 01:44:26;;;;;;;15.55;8.80;;;;;;;9.47;60.64;100525.16;5055449;28;20040;-68
2022/05/02 01:46:52;;;;;;;19.92;9.05;;;;;;;9.45;61.20;100528.47;5055586;28;20094;-68
2022/05/02 01:49:17;;;;;;;13.68;9.25;;;;;;;9.42;60.83;100532.22;5038683;28;20488;-68
2022/05/02 01:51:43;;;;;;;21.98;10.77;;;;;;;9.36;61.51;100531.28;5055280;28;20035;-69
2022/05/02 01:54:09;;;;;;;15.88;9.32;;;;;;;9.35;61.16;100538.19;5073451;28;20032;-69
2022/05/02 01:56:34;;;;;;;19.40;9.23;;;;;;;9.29;61.91;100531.53;5055448;28;20031;-69
2022/05/02 01:59:00;;;;;;;15.38;8.90;;;;;;;9.28;61.17;100535.63;5055472;28;20032;-68
2022/05/02 02:01:25;;;;;;;16.63;8.55;;;;;;;9.24;62.22;100540.66;5055454;28;20036;-68
2022/05/02 02:03:50;;;;;;;14.40;9.32;;;;;;;9.20;61.96;100539.22;5055473;28;20036;-69
2022/05/02 02:06:16;;;;;;;14.05;8.48;;;;;;;9.16;63.00;100539.34;5055412;28;20024;-68
2022/05/02 02:08:41;;;;;;;13.85;8.88;;;;;;;9.09;63.16;100543.25;5073616;28;20099;-68
2022/05/02 02:11:09;;;;;;;15.43;8.70;;;;;;;9.05;62.89;100548.28;5055792;28;20052;-69
2022/05/02 02:13:35;;;;;;;15.18;8.50;;;;;;;9.02;63.50;100549.22;5075725;28;20023;-69
2022/05/02 02:16:06;;;;;;;12.70;7.88;;;;;;;8.96;64.59;100539.69;5093774;28;20028;-69
2022/05/02 02:18:32;;;;;;;15.68;8.57;;;;;;;8.94;65.15;100547.88;5093459;28;20035;-69
2022/05/02 02:20:57;;;;;;;15.52;8.25;;;;;;;8.88;65.99;100543.25;5093266;28;20090;-69
2022/05/02 02:23:23;;;;;;;18.45;10.68;;;;;;;8.90;64.45;100535.06;5075314;28;20110;-68
2022/05/02 02:25:48;;;;;;;17.20;9.30;;;;;;;8.87;66.19;100533.16;5075301;28;20114;-68
2022/05/02 02:28:14;;;;;;;15.07;9.10;;;;;;;8.83;65.19;100535.34;5093344;28;20039;-69
2022/05/02 02:30:41;;;;;;;17.00;9.38;;;;;;;8.81;65.70;100535.00;5093397;28;20027;-68
2022/05/02 02:33:06;;;;;;;13.32;8.73;;;;;;;8.76;65.58;100544.09;5075103;28;20540;-69
2022/05/02 02:35:32;;;;;;;16.02;8.25;;;;;;;8.67;66.14;100530.63;5093507;28;20120;-69
2022/05/02 02:37:58;;;;;;;13.48;8.93;;;;;;;8.66;65.88;100534.72;5075162;28;20125;-68
2022/05/02 02:40:24;;;;;;;14.48;9.20;;;;;;;8.58;66.53;100525.63;5075164;28;20051;-68
2022/05/02 02:42:49;;;;;;;13.02;9.02;;;;;;;8.60;66.70;100534.50;5094510;28;20024;-70
2022/05/02 02:45:14;;;;;;;14.95;8.82;;;;;;;8.46;67.27;100520.03;5078913;28;20024;-68
2022/05/02 02:47:41;;;;;;;12.50;8.88;;;;;;;8.53;67.13;100528.28;5097141;28;20418;-69
2022/05/02 02:50:06;;;;;;;16.40;8.70;;;;;;;8.52;67.63;100527.50;5079086;28;20388;-69
2022/05/02 02:52:32;;;;;;;15.70;9.32;;;;;;;8.49;68.08;100536.91;5097032;28;20024;-70
2022/05/02 02:54:57;;;;;;;14.05;9.35;;;;;;;8.46;67.66;100528.53;5097041;28;20028;-70
2022/05/02 02:57:22;;;;;;;17.27;9.30;;;;;;;8.42;68.18;100537.19;5078967;28;20383;-68
2022/05/02 02:59:48;;;;;;;13.07;8.95;;;;;;;8.33;68.33;100537.09;5062142;28;20028;-68
2022/05/02 03:02:14;;;;;;;15.82;8.95;;;;;;;8.37;68.71;100542.66;5096886;28;20043;-68
2022/05/02 03:07:25;;;;;;;16.98;9.23;;;;;;;8.38;69.10;100541.41;5081787;28;20114;-69
2022/05/02 03:09:50;;;;;;;13.88;9.25;;;;;;;8.33;70.78;100533.47;5096736;28;20477;-69
2022/05/02 03:12:16;;;;;;;12.23;8.50;;;;;;;8.35;70.86;100540.25;5051688;28;20135;-69
2022/05/02 03:14:41;;;;;;;15.88;9.25;;;;;;;8.36;71.11;100543.88;5076300;28;20384;-69
2022/05/02 03:17:07;;;;;;;15.85;9.20;;;;;;;8.30;70.91;100532.31;5058378;28;20028;-70
2022/05/02 03:19:32;;;;;;;12.88;9.32;;;;;;;8.34;71.82;100543.56;5076463;28;20016;-68
2022/05/02 03:21:57;;;;;;;17.90;8.43;;;;;;;8.36;71.36;100541.84;5058370;28;20028;-69
2022/05/02 03:24:23;;;;;;;18.27;8.95;;;;;;;8.38;71.96;100547.06;5076596;28;20032;-68
2022/05/02 03:26:48;;;;;;;16.30;8.93;;;;;;;8.37;71.40;100540.59;5058438;28;20095;-68
2022/05/02 03:29:13;;;;;;;12.60;9.02;;;;;;;8.41;71.86;100544.09;5058393;28;20029;-67
2022/05/02 03:31:39;;;;;;;14.68;7.93;;;;;;;8.42;71.72;100542.88;5075993;28;20542;-69
2022/05/02 03:34:05;;;;;;;11.38;7.50;;;;;;;8.43;72.09;100546.50;5076867;28;20041;-69
2022/05/02 03:36:30;;;;;;;13.30;8.48;;;;;;;8.39;71.27;100540.13;5077110;28;20034;-67
2022/05/02 03:38:55;;;;;;;14.55;9.30;;;;;;;8.39;70.81;100546.59;5076769;28;20073;-68
2022/05/02 03:41:21;;;;;;;13.05;7.85;;;;;;;8.42;72.18;100545.69;5076430;28;20032;-68
2022/05/02 03:43:46;;;;;;;13.88;8.73;;;;;;;8.37;72.30;100534.94;5058191;28;20036;-68
2022/05/02 03:46:11;;;;;;;13.02;9.40;;;;;;;8.40;72.08;100548.19;5057778;28;20040;-67
2022/05/02 03:48:36;;;;;;;12.23;8.18;;;;;;;8.40;72.14;100547.41;5058019;28;20382;-68
2022/05/02 03:51:02;;;;;;;12.30;8.43;;;;;;;8.49;70.83;100551.13;5057764;28;20457;-68
2022/05/02 03:53:27;;;;;;;12.48;8.25;;;;;;;8.51;72.07;100551.47;5075871;28;20080;-70
2022/05/02 03:55:53;;;;;;;13.32;8.30;;;;;;;8.39;72.63;100535.25;5074702;28;20063;-67
2022/05/02 03:58:18;;;;;;;16.80;7.78;;;;;;;8.53;71.83;100556.69;5075691;28;20025;-69
2022/05/02 04:00:44;;;;;;;15.50;8.35;;;;;;;8.55;71.82;100551.31;5040717;28;20032;-68
2022/05/02 04:03:10;;;;;;;14.40;7.75;;;;;;;8.54;71.60;100541.22;5057601;28;20028;-67
2022/05/02 04:05:35;;;;;;;13.18;7.30;;;;;;;8.59;71.71;100552.00;5057659;28;20032;-69
2022/05/02 04:08:00;;;;;;;9.32;7.28;;;;;;;8.68;71.30;100548.47;5057538;28;20040;-68
2022/05/02 04:10:26;;;;;;;15.80;9.07;;;;;;;8.81;71.00;100549.19;5075248;28;20040;-68
2022/05/02 04:12:51;;;;;;;12.73;7.07;;;;;;;8.82;70.87;100533.75;5090201;28;20147;-68
2022/05/02 04:15:17;;;;;;;13.85;8.32;;;;;;;9.01;71.08;100549.66;5095436;28;20031;-68
2022/05/02 04:17:43;;;;;;;11.60;7.97;;;;;;;9.10;71.17;100538.34;5095485;28;20028;-69
2022/05/02 04:20:09;;;;;;;16.45;8.68;;;;;;;9.21;70.57;100552.97;5060634;28;20028;-69
2022/05/02 04:22:36;;;;;;;13.73;7.70;;;;;;;9.23;69.69;100535.44;5077114;28;20421;-68
2022/05/02 04:25:01;;;;;;;14.18;7.18;;;;;;;9.41;69.93;100544.88;5060497;28;20466;-68
2022/05/02 04:27:26;;;;;;;16.00;7.25;;;;;;;9.60;69.59;100548.59;5077265;28;20077;-68
2022/05/02 04:29:52;;;;;;;11.20;6.28;;;;;;;9.84;68.63;100552.50;5076940;28;20032;-68
2022/05/02 04:32:17;;;;;;;13.15;7.05;;;;;;;10.11;67.91;100540.44;5077399;28;20024;-68
2022/05/02 04:34:43;;;;;;;11.38;7.15;;;;;;;10.45;66.97;100535.78;5095331;28;20424;-69
2022/05/02 04:37:08;;;;;;;10.45;7.13;;;;;;;10.82;65.81;100546.72;5094954;28;20028;-69
2022/05/02 04:39:34;;;;;;;12.07;8.30;;;;;;;11.16;64.80;100537.03;5095224;28;20365;-70
2022/05/02 04:41:59;;;;;;;15.07;7.50;;;;;;;11.53;63.12;100529.19;5094755;28;20475;-68
2022/05/02 04:44:24;;;;;;;13.82;7.70;;;;;;;11.82;62.75;100527.81;5094783;28;20024;-69
2022/05/02 04:46:50;;;;;;;12.57;7.40;;;;;;;12.04;60.87;100522.63;5076835;28;20110;-69
2022/05/02 04:49:15;;;;;;;12.38;8.20;;;;;;;12.20;60.28;100507.94;5095385;28;20108;-68
2022/05/02 04:51:40;;;;;;;13.25;7.93;;;;;;;12.55;59.78;100536.75;5094715;28;20469;-69
2022/05/02 04:54:06;;;;;;;9.13;7.35;;;;;;;12.66;58.84;100519.84;5076580;28;20030;-69
2022/05/02 04:56:31;;;;;;;13.52;7.70;;;;;;;12.84;58.66;100530.34;5076594;28;20392;-68
2022/05/02 04:58:56;;;;;;;11.95;7.90;;;;;;;12.92;57.68;100522.97;5094382;28;20373;-69
2022/05/02 05:01:22;;;;;;;12.27;7.38;;;;;;;13.09;57.78;100529.00;5094429;28;20038;-68
2022/05/02 05:03:47;;;;;;;9.65;6.20;;;;;;;13.22;57.70;100526.69;5094477;28;20076;-68
2022/05/02 05:06:13;;;;;;;13.60;7.70;;;;;;;13.32;56.76;100522.47;5094491;28;20431;-69
2022/05/02 05:08:39;;;;;;;11.07;6.82;;;;;;;13.49;55.61;100534.19;5076495;28;20111;-67
2022/05/02 05:11:08;;;;;;;13.55;7.50;;;;;;;13.67;55.64;100533.97;5075986;28;20074;-68
2022/05/02 05:17:31;;;;;;;16.95;8.18;;;;;;;14.02;53.90;100525.41;5094501;28;20047;-68
2022/05/02 05:20:13;;;;;;;12.00;6.68;;;;;;;14.30;53.38;100526.63;5068515;28;20048;-69
2022/05/02 05:23:13;;;;;;;11.25;5.57;;;;;;;14.48;52.10;100534.97;5094322;28;20094;-69
2022/05/02 05:25:42;;;;;;;10.43;6.55;;;;;;;14.58;52.33;100529.91;5076321;28;20028;-69
2022/05/02 05:28:32;;;;;;;10.13;7.07;;;;;;;14.78;51.92;100537.72;5075922;28;20103;-69
2022/05/02 05:31:31;;;;;;;13.77;6.53;;;;;;;15.05;50.33;100529.41;5075824;28;20020;-69
2022/05/02 05:34:16;;;;;;;8.48;6.78;;;;;;;15.38;50.53;100531.88;5094094;28;20067;-68
2022/05/02 05:36:44;;;;;;;12.20;6.72;;;;;;;15.65;49.39;100533.44;5094589;28;20548;-68
2022/05/02 05:39:29;;;;;;;12.20;6.70;;;;;;;15.89;48.02;100522.41;5076698;28;20032;-69
2022/05/02 05:42:04;;;;;;;10.60;6.55;;;;;;;16.11;47.75;100529.63;5094358;28;20115;-68
2022/05/02 05:44:29;;;;;;;9.38;6.20;;;;;;;16.36;47.97;100529.53;5075578;28;20032;-68
2022/05/02 05:47:24;;;;;;;10.90;6.55;;;;;;;16.59;48.74;100535.41;5075419;28;20084;-69
2022/05/02 05:50:11;;;;;;;10.23;6.82;;;;;;;16.58;48.58;100537.50;5058895;28;20024;-69
2022/05/02 05:52:54;;;;;;;8.88;6.32;;;;;;;16.63;46.73;100539.59;5093772;28;20024;-69
2022/05/02 05:55:27;;;;;;;11.27;6.68;;;;;;;16.64;47.82;100540.41;5093602;28;20101;-69
2022/05/02 05:58:03;;;;;;;9.70;6.80;;;;;;;16.58;46.36;100528.88;5075552;28;20543;-69
2022/05/02 06:00:34;;;;;;;10.20;6.68;;;;;;;16.60;47.39;100539.84;5076132;28;20030;-69
2022/05/02 06:03:13;;;;;;;11.10;6.95;;;;;;;16.83;47.01;100538.66;5075463;28;20385;-68
2022/05/02 06:05:40;;;;;;;9.65;6.40;;;;;;;17.06;45.99;100540.31;5075319;28;20024;-71
2022/05/02 06:08:09;;;;;;;11.40;6.40;;;;;;;17.18;46.42;100539.03;5093295;28;20055;-68
2022/05/02 06:10:36;;;;;;;12.40;7.50;;;;;;;17.42;45.13;100529.13;5093540;28;20028;-68
2022/05/02 06:13:02;;;;;;;12.27;7.05;;;;;;;17.75;44.82;100539.94;5093115;28;20094;-68
2022/05/02 06:18:29;;;;;;;9.32;7.05;;;;;;;18.30;43.46;100539.09;5081682;28;20101;-69
2022/05/02 06:21:13;;;;;;;12.70;6.82;;;;;;;18.75;39.42;100531.09;5066868;28;20030;-68
2022/05/02 06:23:45;;;;;;;11.82;7.47;;;;;;;19.13;39.20;100532.25;5065094;28;20031;-69
2022/05/02 06:26:14;;;;;;;9.02;6.30;;;;;;;19.56;38.71;100539.09;5082330;28;20450;-69
2022/05/02 06:28:44;;;;;;;19.70;8.45;;;;;;;19.93;37.68;100540.66;5100263;28;20095;-68
2022/05/02 06:31:18;;;;;;;9.63;6.43;;;;;;;20.15;37.31;100543.34;5082019;28;20045;-70
2022/05/02 06:33:48;;;;;;;12.55;7.47;;;;;;;20.32;35.04;100540.31;5065283;28;20035;-68
2022/05/02 06:36:33;;;;;;;10.73;6.30;;;;;;;20.51;33.33;100550.63;5082312;28;20069;-69
2022/05/02 06:39:05;;;;;;;10.95;7.30;;;;;;;20.63;34.58;100548.38;5065054;28;20388;-69
2022/05/02 06:41:40;;;;;;;18.52;7.43;;;;;;;20.33;34.87;100548.44;5081955;28;20093;-69
2022/05/02 06:44:09;;;;;;;12.15;7.03;;;;;;;20.12;36.82;100548.09;5099843;28;20365;-68
2022/05/02 06:46:47;;;;;;;10.07;6.85;;;;;;;20.25;35.75;100550.34;5081984;28;20027;-69
2022/05/02 06:49:12;;;;;;;10.02;6.82;;;;;;;20.28;36.10;100555.03;5099848;28;20031;-68
2022/05/02 06:51:39;;;;;;;10.77;7.20;;;;;;;20.15;36.49;100552.00;5081980;28;20020;-69
2022/05/02 06:54:19;;;;;;;10.98;6.85;;;;;;;20.22;36.83;100555.13;5100119;28;20028;-69
2022/05/02 06:56:46;;;;;;;11.70;7.80;;;;;;;20.25;36.90;100554.03;5081594;28;20031;-69
2022/05/02 06:59:50;;;;;;;10.85;7.38;;;;;;;20.37;35.54;100551.06;5099996;28;20108;-68
2022/05/02 07:02:39;;;;;;;11.77;6.57;;;;;;;20.34;36.53;100552.91;5069648;28;20468;-68
2022/05/02 07:05:19;;;;;;;10.60;6.95;;;;;;;20.42;36.43;100553.91;5081583;28;20506;-68
2022/05/02 07:07:54;;;;;;;7.35;5.90;;;;;;;20.51;37.49;100544.06;5081601;28;20039;-69
2022/05/02 07:10:24;;;;;;;11.07;7.50;;;;;;;20.79;37.22;100561.88;5099441;28;20665;-69
2022/05/02 07:13:13;;;;;;;14.15;7.22;;;;;;;20.82;34.95;100552.09;5081335;28;20502;-69
2022/05/02 07:15:46;;;;;;;12.27;7.18;;;;;;;20.89;34.34;100563.09;5099701;28;20059;-70
2022/05/02 07:18:37;;;;;;;14.02;6.90;;;;;;;20.99;35.66;100549.00;5081456;28;20035;-68
2022/05/02 07:21:24;;;;;;;13.67;8.77;;;;;;;21.24;33.74;100544.75;5081756;28;20027;-70
2022/05/02 07:24:26;;;;;;;14.43;8.30;;;;;;;21.47;33.15;100548.88;5081755;28;20070;-70
2022/05/02 07:27:21;;;;;;;10.80;7.35;;;;;;;21.66;32.78;100551.00;5099431;28;20046;-69
2022/05/02 07:29:47;;;;;;;13.57;7.50;;;;;;;22.03;32.71;100542.22;5050727;28;20071;-70
2022/05/02 07:32:13;;;;;;;9.85;7.90;;;;;;;22.44;32.24;100544.66;5078489;28;20024;-70
2022/05/02 07:34:41;;;;;;;11.35;7.47;;;;;;;22.80;32.51;100545.78;5078325;28;20117;-69
2022/05/02 07:37:06;;;;;;;11.82;8.00;;;;;;;23.16;31.31;100546.09;5078061;28;20031;-69
2022/05/02 07:39:35;;;;;;;10.90;7.85;;;;;;;23.70;32.16;100547.53;5095826;28;20115;-69
2022/05/02 07:42:03;;;;;;;10.70;7.40;;;;;;;24.39;30.65;100548.97;5096299;28;20024;-70
2022/05/02 07:44:31;;;;;;;11.20;7.20;;;;;;;24.72;30.28;100556.78;5078028;28;20028;-69
2022/05/02 07:46:58;;;;;;;8.80;6.90;;;;;;;24.93;29.07;100554.59;5077770;28;20028;-69
2022/05/02 07:49:26;;;;;;;11.13;7.57;;;;;;;24.90;28.96;100555.75;5078100;28;20461;-69
2022/05/02 07:51:51;;;;;;;11.82;7.07;;;;;;;25.65;27.91;100554.56;5077540;28;20023;-70
2022/05/02 07:54:22;;;;;;;9.50;6.95;;;;;;;26.77;27.22;100539.03;5078384;28;20024;-69
2022/05/02 07:56:51;;;;;;;9.38;7.28;;;;;;;27.60;25.45;100556.31;5077737;28;20027;-68
2022/05/02 07:59:19;;;;;;;12.60;7.82;;;;;;;27.97;23.62;100545.75;5060821;28;20024;-69
2022/05/02 08:01:45;;;;;;;8.98;6.78;;;;;;;28.43;25.02;100549.13;5077579;28;20020;-68
2022/05/02 08:04:14;;;;;;;9.00;7.00;;;;;;;29.30;23.68;100556.66;5078426;28;20115;-68
2022/05/02 08:06:49;;;;;;;9.48;8.05;;;;;;;29.30;21.37;100561.72;5096557;28;20027;-70
2022/05/02 08:09:14;;;;;;;10.40;7.65;;;;;;;28.69;23.33;100551.41;5096264;28;20060;-70
2022/05/02 08:12:10;;;;;;;11.07;6.90;;;;;;;28.27;22.54;100554.31;5095882;28;20093;-69
2022/05/02 08:14:38;;;;;;;15.10;7.63;;;;;;;28.33;24.73;100554.09;5077509;28;20282;-70
2022/05/02 08:17:22;;;;;;;9.65;7.22;;;;;;;28.86;24.20;100553.63;5095424;28;20020;-69
2022/05/02 08:20:07;;;;;;;10.75;7.00;;;;;;;29.39;22.03;100546.38;5095210;28;20020;-69
2022/05/02 08:28:45;;;;;;;10.82;7.03;;;;;;;31.72;18.96;100542.88;5080102;28;20085;-69
2022/05/02 08:31:21;;;;;;;9.50;7.05;;;;;;;32.31;18.68;100546.44;5095180;28;20035;-70
2022/05/02 08:33:58;;;;;;;8.98;6.93;;;;;;;31.48;18.59;100540.28;5076936;28;20095;-70
2022/05/02 08:36:35;;;;;;;9.82;6.70;;;;;;;31.67;18.56;100529.28;5095210;28;20020;-70
2022/05/02 08:39:03;;;;;;;11.13;7.10;;;;;;;31.91;19.89;100538.34;5076956;28;20028;-70
2022/05/02 08:41:30;;;;;;;7.57;6.03;;;;;;;32.13;18.79;100542.94;5076573;28;20027;-71
2022/05/02 08:44:07;;;;;;;9.20;6.30;;;;;;;32.25;17.93;100537.16;5094987;28;20020;-71
2022/05/02 08:46:51;;;;;;;8.50;6.55;;;;;;;32.14;18.64;100535.63;5094994;28;20031;-70
2022/05/02 08:49:37;;;;;;;10.00;6.70;;;;;;;31.83;17.49;100531.84;5094683;28;20038;-69
2022/05/02 08:52:40;;;;;;;10.10;6.50;;;;;;;31.72;17.26;100530.34;5094707;28;20421;-71
2022/05/02 08:55:18;;;;;;;9.15;5.82;;;;;;;31.68;17.68;100530.03;5094719;28;20469;-71
2022/05/02 08:58:07;;;;;;;9.23;6.13;;;;;;;31.59;19.40;100521.97;5094558;28;20032;-70
2022/05/02 09:00:51;;;;;;;10.00;6.43;;;;;;;32.06;18.21;100523.25;5076295;28;20028;-71
2022/05/02 09:03:17;;;;;;;8.35;6.70;;;;;;;32.06;17.10;100521.06;5094606;28;20028;-69
2022/05/02 09:05:46;;;;;;;8.73;6.50;;;;;;;31.66;17.60;100524.78;5094352;28;20027;-69
2022/05/02 09:08:32;;;;;;;10.40;6.97;;;;;;;31.29;18.72;100524.16;5094188;28;20278;-69
2022/05/02 09:11:31;;;;;;;10.75;7.03;;;;;;;30.96;19.71;100522.28;5094677;28;20028;-70
2022/05/02 09:14:19;;;;;;;8.88;6.35;;;;;;;30.32;18.49;100524.63;5055857;28;20131;-70
2022/05/02 09:16:56;;;;;;;10.45;6.93;;;;;;;29.72;19.64;100523.41;5073966;28;20021;-69
2022/05/02 09:19:43;;;;;;;11.88;6.80;;;;;;;29.38;20.45;100521.34;5056452;28;20032;-69
2022/05/02 09:22:46;;;;;;;10.32;7.13;;;;;;;29.48;20.21;100525.13;5074058;28;20055;-70
2022/05/02 09:25:12;;;;;;;9.35;6.88;;;;;;;29.35;20.04;100520.41;5073915;28;20035;-70
2022/05/02 09:28:02;;;;;;;11.00;6.15;;;;;;;29.39;21.24;100514.09;5072714;28;20130;-69
2022/05/02 09:30:45;;;;;;;7.70;5.63;;;;;;;29.39;20.43;100506.06;5074051;28;20025;-69
2022/05/02 09:33:14;;;;;;;7.78;6.13;;;;;;;29.27;20.01;100510.09;5074329;28;20021;-70
2022/05/02 09:35:53;;;;;;;10.23;6.13;;;;;;;29.14;20.08;100514.19;5074468;28;20090;-69
2022/05/02 09:38:26;;;;;;;9.45;6.03;;;;;;;29.03;21.22;100500.03;5074002;28;20030;-70
2022/05/02 09:41:00;;;;;;;8.82;5.85;;;;;;;29.07;20.92;100497.44;5073745;28;20033;-70
2022/05/02 09:50:07;;;;;;;11.35;6.78;;;;;;;28.10;21.62;100498.59;5059066;28;20032;-71
2022/05/02 09:52:45;;;;;;;10.98;6.35;;;;;;;27.93;23.26;100493.44;5055516;28;20020;-70
2022/05/02 09:58:26;;;;;;;7.70;6.28;;;;;;;28.21;22.75;100494.44;5073860;28;20036;-69
2022/05/02 10:01:10;;;;;;;8.10;5.70;;;;;;;28.22;22.01;100487.19;5072341;28;20016;-69
2022/05/02 10:03:40;;;;;;;8.05;6.25;;;;;;;27.91;21.87;100483.72;5072298;28;20025;-70
2022/05/02 10:06:09;;;;;;;7.70;5.60;;;;;;;27.45;21.58;100472.28;5073440;28;20024;-70
2022/05/02 10:08:44;;;;;;;9.80;5.43;;;;;;;27.15;23.17;100478.28;5055610;28;20039;-70
2022/05/02 10:11:26;;;;;;;7.75;5.43;;;;;;;27.29;25.21;100470.03;5073966;28;20032;-70
2022/05/02 10:14:06;;;;;;;8.82;5.18;;;;;;;27.45;21.86;100474.41;5093614;28;20031;-69
2022/05/02 10:17:02;;;;;;;7.53;4.63;;;;;;;27.40;22.96;100464.50;5058690;28;20036;-69
2022/05/02 10:19:43;;;;;;;7.00;5.35;;;;;;;27.11;22.39;100460.38;5093567;28;20148;-69
2022/05/02 10:22:29;;;;;;;4.65;4.07;;;;;;;26.70;22.04;100460.88;5093700;28;20059;-69
2022/05/02 10:25:08;;;;;;;7.20;4.78;;;;;;;26.21;22.21;100454.19;5075486;28;20032;-69
2022/05/02 10:27:41;;;;;;;7.15;4.85;;;;;;;26.13;23.71;100449.69;5075353;28;20039;-69
2022/05/02 10:30:13;;;;;;;6.05;4.63;;;;;;;26.21;27.85;100444.59;5075543;28;20039;-71
2022/05/02 10:32:44;;;;;;;6.40;5.05;;;;;;;26.08;22.26;100439.00;5093525;28;20105;-69
2022/05/02 10:35:15;;;;;;;6.63;5.18;;;;;;;25.96;23.63;100429.06;5093270;28;20067;-69
2022/05/02 10:38:01;;;;;;;7.93;4.17;;;;;;;25.70;21.88;100431.00;5075340;28;20031;-69
2022/05/02 10:40:39;;;;;;;6.65;4.80;;;;;;;25.63;23.51;100431.00;5075129;28;20282;-69
2022/05/02 10:43:10;;;;;;;9.10;5.32;;;;;;;25.56;24.42;100425.94;5093435;28;20031;-70
2022/05/02 10:45:36;;;;;;;;;;;;;;;25.36;23.06;100424.69;5093787;28;20039;-69
2022/05/02 10:48:17;;;;;;;6.75;4.03;;;;;;;25.17;24.23;100421.34;5093188;28;20319;-69
2022/05/02 10:51:13;;;;;;;9.82;4.80;;;;;;;25.14;23.90;100417.47;5093354;28;20036;-68
2022/05/02 10:53:58;;;;;;;5.57;3.63;;;;;;;24.92;21.90;100421.88;5093432;28;20085;-69
2022/05/02 10:56:32;;;;;;;6.53;3.60;;;;;;;24.68;22.67;100424.47;5093446;28;20469;-69
2022/05/02 10:59:01;;;;;;;4.15;3.53;;;;;;;24.41;22.73;100410.16;5093190;28;20056;-69
2022/05/02 11:02:12;;;;;;;5.85;4.15;;;;;;;24.36;23.15;100425.66;5074802;28;20059;-70
2022/05/02 11:04:47;;;;;;;6.03;3.70;;;;;;;24.14;22.62;100416.75;5032272;28;20047;-69
2022/05/02 11:07:28;;;;;;;8.80;5.10;;;;;;;23.84;25.27;100420.22;5096932;28;20024;-68
2022/05/02 11:10:14;;;;;;;7.85;5.45;;;;;;;23.61;24.94;100412.09;5096717;28;20069;-69
2022/05/02 11:12:46;;;;;;;5.95;4.40;;;;;;;23.67;26.53;100409.03;5065877;28;20444;-70
2022/05/02 11:15:21;;;;;;;7.13;4.82;;;;;;;23.43;23.21;100401.44;5077030;28;20082;-68
2022/05/02 11:17:49;;;;;;;5.78;4.60;;;;;;;23.13;27.18;100399.00;5042375;28;20020;-68
2022/05/02 11:20:45;;;;;;;7.20;4.70;;;;;;;23.25;27.46;100396.56;5076788;28;20033;-69
2022/05/02 11:23:19;;;;;;;7.40;5.75;;;;;;;23.30;26.95;100398.56;5076246;28;20060;-69
2022/05/02 11:26:27;;;;;;;7.85;5.30;;;;;;;23.29;24.53;100390.44;5076313;28;20035;-68
2022/05/02 11:29:07;;;;;;;9.65;5.03;;;;;;;23.30;27.40;100391.97;5058175;28;20039;-68
2022/05/02 11:31:32;;;;;;;9.02;4.85;;;;;;;23.33;26.85;100380.00;5076398;28;20177;-69
2022/05/02 11:34:01;;;;;;;6.70;5.20;;;;;;;23.18;28.94;100377.72;5076327;28;20068;-70
2022/05/02 11:36:29;;;;;;;7.10;4.90;;;;;;;23.04;26.22;100392.88;5076333;28;20306;-69
2022/05/02 11:39:05;;;;;;;10.00;4.78;;;;;;;23.08;26.95;100382.47;5058038;28;20056;-70
2022/05/02 11:41:32;;;;;;;9.55;5.47;;;;;;;23.04;26.32;100376.19;5076458;28;20363;-69
2022/05/02 11:44:08;;;;;;;4.53;3.95;;;;;;;23.13;27.51;100374.97;5058177;28;20381;-69
2022/05/02 11:46:39;;;;;;;6.63;4.25;;;;;;;23.06;25.20;100378.56;5076751;28;20024;-70
2022/05/02 11:49:18;;;;;;;5.35;4.50;;;;;;;23.12;25.66;100367.56;5076289;28;20032;-70
2022/05/02 11:51:49;;;;;;;7.20;4.53;;;;;;;23.14;26.82;100367.78;5058462;28;20025;-69
2022/05/02 11:54:33;;;;;;;7.00;4.30;;;;;;;23.18;27.98;100360.28;5075899;28;20488;-70
2022/05/02 11:57:29;;;;;;;6.72;4.47;;;;;;;23.32;27.89;100354.41;5076057;28;20028;-69
2022/05/02 12:00:16;;;;;;;6.35;4.53;;;;;;;23.40;26.02;100356.00;5023696;28;20047;-69
2022/05/02 12:02:56;;;;;;;6.97;4.50;;;;;;;23.53;27.08;100352.28;5041122;28;20032;-69
2022/05/02 12:05:27;;;;;;;6.35;4.97;;;;;;;23.58;25.34;100355.03;5076126;28;20036;-69
2022/05/02 12:07:56;;;;;;;;;;;;;;;23.82;25.03;100350.97;5076177;28;20039;-69
2022/05/02 12:10:50;;;;;;;8.18;4.70;;;;;;;24.02;25.71;100353.03;5075495;28;19912;-69